KOSH

Wittman Regional Airport

Oshkosh, Wisconsin, USA
METAR KOSH 180153Z 00000KT 8SM CLR 21/20 A3002 RMK AO2 SLP155 T02110200
Observed Flight Rules
Aug-18 @ 01:53 UTC (37 minutes ago) Visual Flight Rules
Visibility Clouds
8 miles
  • Clear skies
Temperatures Readings
Current 21°C / 70°F
Dewpoint 20°C / 68°F
Humidity 94%
Altimeter 30.02" Hg
Pressure 1015.5 hPa
Elevation 248
METAR KOSH 180153Z 00000KT 8SM CLR 21/20 A3002 RMK AO2 SLP155 T02110200
Observed Flight Rules
Aug-18 @ 01:53 UTC
(37 minutes ago)
VFR
Clouds
  • Clear skies
Temperature Dewpoint
21°C / 70°F 20°C / 68°F
Humidity Altimeter Pressure
94% 30.02" Hg 1015.5 hPa